Flight Track Log - Related Links

Times and Time Zones

All times are in EDT time to prevent confusion due to time zone crossing. See the ASH2710 flight status page for this flight to view local times or setup timezone preferences in your user account.

Time Position Orientation Groundspeed Altitude Reporting Facility
EDT Latitude Longitude Course Direction KTS MPH feet Rate Location/Type
Thu 10:24:23 AM 38.7667 -90.4167 130° Southeast 164 189 1,300  Level Gateway (St. Louis) TRACON
Thu 10:25:29 AM 38.7833 -90.4833 288° West 213 245 3,500 2,096 Climbing Gateway (St. Louis) TRACON
Thu 10:25:46 AM 38.7800 -90.5003 256° West 211 243 4,200 2,846 Climbing Kansas City Center
Thu 10:26:47 AM 38.7203 -90.4936 175° South 221 254 7,200 2,488 Climbing Kansas City Center
Thu 10:27:00 AM 38.5469 -90.0589 127° Southeast  Level FlightAware Approximate
Thu 10:27:49 AM 38.6567 -90.4922 179° South 233 268 9,300  Level Kansas City Center
Thu 10:28:00 AM 38.4847 -89.9523 127° Southeast  Level FlightAware Approximate
Thu 10:28:50 AM 38.5831 -90.4933 181° South 263 303 12,100  Level Kansas City Center
Thu 10:29:00 AM 38.4174 -89.8510 130° Southeast  Level FlightAware Approximate
Thu 10:29:52 AM 38.5275 -90.4244 136° Southeast 290 334 14,500  Level Kansas City Center
Thu 10:30:54 AM 38.4900 -90.2931 110° East 330 380 16,100 1,707 Climbing Kansas City Center
Thu 10:31:55 AM 38.4558 -90.1678 109° East 368 423 18,000 1,756 Climbing Kansas City Center
Thu 10:32:57 AM 38.4197 -90.0364 109° East 388 447 19,700 1,790 Climbing Kansas City Center
Thu 10:33:59 AM 38.3811 -89.9000 110° East 405 466 21,700 1,805 Climbing Kansas City Center
Thu 10:35:00 AM 38.3425 -89.7575 109° East 416 479 23,400 1,756 Climbing Kansas City Center
Thu 10:36:02 AM 38.2611 -89.6086 125° Southeast 428 493 25,300 1,645 Climbing Kansas City Center
Thu 10:37:04 AM 38.1811 -89.4936 131° Southeast 435 501 26,800 1,268 Climbing Kansas City Center
Thu 10:38:05 AM 38.0992 -89.3761 132° Southeast 445 512 27,900 1,171 Climbing Kansas City Center
Thu 10:39:07 AM 38.0075 -89.2458 132° Southeast 458 527 29,200 1,113 Climbing Kansas City Center
Thu 10:40:09 AM 37.9208 -89.1233 132° Southeast 466 536 30,200 927 Climbing Kansas City Center
Thu 10:41:10 AM 37.8400 -89.0083 132° Southeast 476 548 31,100 976 Climbing Kansas City Center
Thu 10:42:12 AM 37.7500 -88.8731 130° Southeast 482 555 32,200 1,113 Climbing Kansas City Center
Thu 10:43:14 AM 37.6589 -88.7483 133° Southeast 483 556 33,400 1,269 Climbing Kansas City Center
Thu 10:43:56 AM 37.5889 -88.6558 134° Southeast 481 554 34,400 941 Climbing Memphis Center
Thu 10:44:56 AM 37.5017 -88.5297 131° Southeast 476 548 35,000 300 Climbing Memphis Center
Thu 10:45:56 AM 37.4081 -88.4014 133° Southeast 481 554 35,000  Level Memphis Center
Thu 10:46:56 AM 37.3164 -88.2733 132° Southeast 481 554 35,000  Level Memphis Center
Thu 10:47:56 AM 37.2225 -88.1453 133° Southeast 487 560 35,000  Level Memphis Center
Thu 10:48:56 AM 37.1369 -88.0281 132° Southeast 493 567 35,000  Level Memphis Center
Thu 10:49:56 AM 37.0364 -87.8881 132° Southeast 493 567 35,000  Level Memphis Center
Thu 10:50:56 AM 36.9422 -87.7611 133° Southeast 487 560 35,000  Level Memphis Center
Thu 10:51:56 AM 36.8500 -87.6372 133° Southeast 487 560 35,000  Level Memphis Center
Thu 10:52:56 AM 36.7553 -87.5108 133° Southeast 495 570 35,000  Level Memphis Center
Thu 10:53:56 AM 36.6628 -87.3847 132° Southeast 495 570 35,000  Level Memphis Center
Thu 10:54:56 AM 36.5700 -87.2592 133° Southeast 495 570 35,000  Level Memphis Center
Thu 10:55:56 AM 36.4731 -87.1311 133° Southeast 495 570 35,000  Level Memphis Center
Thu 10:56:56 AM 36.3781 -87.0036 133° Southeast 495 570 35,000  Level Memphis Center
Thu 10:57:56 AM 36.2872 -86.8914 135° Southeast 502 578 35,000  Level Memphis Center
Thu 10:58:56 AM 36.1853 -86.7517 132° Southeast 499 574 35,000  Level Memphis Center
Thu 10:59:56 AM 36.1308 -86.6025 114° Southeast 476 548 35,000  Level Memphis Center
Thu 11:00:56 AM 36.1153 -86.4389 97° East 468 539 35,000  Level Memphis Center
Thu 11:01:56 AM 36.1039 -86.2800 95° East 467 537 35,000  Level Memphis Center
Thu 11:02:56 AM 36.0942 -86.1136 94° East 475 547 35,000  Level Memphis Center
Thu 11:03:56 AM 36.0822 -85.9500 95° East 480 552 35,000  Level Memphis Center
Thu 11:06:22 AM 36.0508 -85.5719 96° East 468 539 35,000  Level Atlanta Center
Thu 11:07:22 AM 36.0403 -85.4100 95° East 473 544 35,000  Level Atlanta Center
Thu 11:08:22 AM 36.0272 -85.2531 96° East 468 539 35,000  Level Atlanta Center
Thu 11:09:22 AM 36.0142 -85.0939 96° East 463 533 35,000  Level Atlanta Center
Thu 11:10:22 AM 36.0008 -84.9192 95° East 463 533 35,000  Level Atlanta Center
Thu 11:11:22 AM 35.9853 -84.7522 97° East 474 545 35,000  Level Atlanta Center
Thu 11:12:22 AM 35.9694 -84.5931 97° East 474 545 35,000 -350 Level Atlanta Center
Thu 11:13:22 AM 35.9556 -84.4311 96° East 474 545 34,300 -1,050 Descending Atlanta Center
Thu 11:14:22 AM 35.9392 -84.2747 97° East 474 545 32,900 -1,200 Descending Atlanta Center
Thu 11:15:22 AM 35.9247 -84.1183 96° East 463 533 31,900 -1,000 Descending Atlanta Center
Thu 11:16:22 AM 35.9122 -83.9619 96° East 463 533 30,900 -1,000 Descending Atlanta Center
Thu 11:17:22 AM 35.9036 -83.8081 94° East 463 533 29,900 -950 Descending Atlanta Center
Thu 11:18:22 AM 35.9011 -83.6517 91° East 458 527 29,000 -450 Descending Atlanta Center
Thu 11:19:22 AM 35.8986 -83.4903 91° East 458 527 29,000  Level Atlanta Center
Thu 11:20:22 AM 35.8956 -83.3339 91° East 458 527 29,000  Level Atlanta Center
Thu 11:21:22 AM 35.8906 -83.1928 92° East 458 527 29,000 -400 Level Atlanta Center
Thu 11:22:22 AM 35.8872 -83.0339 91° East 458 527 28,200 -900 Descending Atlanta Center
Thu 11:23:22 AM 35.8817 -82.8753 92° East 458 527 27,200 -1,000 Descending Atlanta Center
Thu 11:24:22 AM 35.8781 -82.7164 92° East 458 527 26,200 -1,000 Descending Atlanta Center
Thu 11:25:22 AM 35.8764 -82.5625 91° East 452 520 25,200 -1,600 Descending Atlanta Center
Thu 11:26:22 AM 35.8494 -82.4197 103° East 445 512 23,000 -2,250 Descending Atlanta Center
Thu 11:27:22 AM 35.8100 -82.2847 110° East 422 486 20,700 -2,250 Descending Atlanta Center
Thu 11:28:22 AM 35.7769 -82.1600 108° East 398 458 18,500 -2,100 Descending Atlanta Center
Thu 11:29:22 AM 35.7394 -82.0331 110° East 392 451 16,500 -2,050 Descending Atlanta Center
Thu 11:30:22 AM 35.7039 -81.9136 110° East 380 437 14,400 -2,196 Descending Atlanta Center
Thu 11:31:14 AM 35.6708 -81.7994 110° East 356 410 12,400 -1,678 Descending Atlanta Center
Thu 11:32:20 AM 35.6372 -81.6828 109° East 340 391 11,100 -656 Descending Atlanta Center
Thu 11:33:22 AM 35.6019 -81.5817 113° Southeast 346 398 11,000 -197 Descending Atlanta Center
Thu 11:34:22 AM 35.5542 -81.4911 123° Southeast 326 375 10,700 -950 Descending Atlanta Center
Thu 11:35:22 AM 35.5333 -81.3922 104° East 306 352 9,100 -1,550 Descending Atlanta Center
Thu 11:36:22 AM 35.5125 -81.2961 105° East 300 345 7,600 -1,250 Descending Atlanta Center
Thu 11:37:22 AM 35.4933 -81.1972 103° East 300 345 6,600 -1,250 Descending Atlanta Center
Thu 11:38:22 AM 35.4747 -81.1086 104° East 284 327 5,100 -1,250 Descending Atlanta Center
Thu 11:39:22 AM 35.4331 -81.0286 123° Southeast 268 308 4,100 -650 Descending Atlanta Center
Thu 11:40:22 AM 35.3692 -80.9772 147° Southeast 256 295 3,800 -800 Descending Atlanta Center
Thu 11:41:37 AM 35.3003 -80.9772 180° South 168 193 2,300 -1,200 Descending Atlanta Center

Login

Don't have an account? Register now (free) for customized features, flight alerts, and more!